createdAt,value
2019-05-13T00:00:34.126Z,1032.55
2019-05-13T00:01:34.491Z,1032.53
2019-05-13T00:02:34.489Z,1032.53
2019-05-13T00:03:33.357Z,1032.55
2019-05-13T00:04:33.756Z,1032.53
2019-05-13T00:05:33.994Z,1032.55
2019-05-13T00:06:34.407Z,1032.57
2019-05-13T00:07:34.237Z,1032.58
2019-05-13T00:08:33.873Z,1032.60
2019-05-13T00:09:33.959Z,1032.59
2019-05-13T00:10:34.800Z,1032.60
2019-05-13T00:11:34.603Z,1032.59
2019-05-13T00:12:32.319Z,1032.59
2019-05-13T00:13:33.856Z,1032.63
2019-05-13T00:14:34.359Z,1032.64
2019-05-13T00:15:34.049Z,1032.64
2019-05-13T00:16:34.119Z,1032.64
2019-05-13T00:17:33.780Z,1032.66
2019-05-13T00:18:33.984Z,1032.59
2019-05-13T00:19:33.923Z,1032.59
2019-05-13T00:20:33.940Z,1032.61
2019-05-13T00:21:33.849Z,1032.61
2019-05-13T00:22:33.986Z,1032.63
2019-05-13T00:23:33.937Z,1032.63
2019-05-13T00:24:33.881Z,1032.61
2019-05-13T00:25:34.008Z,1032.58
2019-05-13T00:26:33.814Z,1032.63
2019-05-13T00:27:33.834Z,1032.57
2019-05-13T00:28:34.258Z,1032.61
2019-05-13T00:29:33.983Z,1032.61
2019-05-13T00:30:34.332Z,1032.59
2019-05-13T00:31:33.557Z,1032.63
2019-05-13T00:32:33.690Z,1032.67
2019-05-13T00:33:33.924Z,1032.66
2019-05-13T00:34:33.898Z,1032.67
2019-05-13T00:35:33.976Z,1032.67
2019-05-13T00:36:33.721Z,1032.68
2019-05-13T00:37:33.368Z,1032.64
2019-05-13T00:38:33.521Z,1032.65
2019-05-13T00:39:33.616Z,1032.61
2019-05-13T00:40:33.786Z,1032.59
2019-05-13T00:41:33.669Z,1032.63
2019-05-13T00:42:33.436Z,1032.64
2019-05-13T00:43:33.917Z,1032.68
2019-05-13T00:44:33.848Z,1032.64
2019-05-13T00:45:33.823Z,1032.69
2019-05-13T00:46:33.815Z,1032.73
2019-05-13T00:47:31.527Z,1032.74
2019-05-13T00:48:33.429Z,1032.70
2019-05-13T00:49:31.478Z,1032.71
2019-05-13T00:50:33.541Z,1032.74
2019-05-13T00:51:33.543Z,1032.74
2019-05-13T00:52:33.771Z,1032.77
2019-05-13T00:53:31.389Z,1032.75
2019-05-13T00:54:31.368Z,1032.75
2019-05-13T00:55:31.345Z,1032.72
2019-05-13T00:56:31.325Z,1032.73
2019-05-13T00:57:31.305Z,1032.70
2019-05-13T00:58:33.459Z,1032.76
2019-05-13T00:59:33.647Z,1032.73
2019-05-13T01:00:33.293Z,1032.79
2019-05-13T01:01:33.409Z,1032.79
2019-05-13T01:02:33.323Z,1032.77
2019-05-13T01:03:33.179Z,1032.77
2019-05-13T01:04:31.141Z,1032.77
2019-05-13T01:05:31.116Z,1032.74
2019-05-13T01:06:31.100Z,1032.74
2019-05-13T01:07:31.080Z,1032.75
2019-05-13T01:08:31.047Z,1032.72
2019-05-13T01:09:31.027Z,1032.71
2019-05-13T01:10:31.002Z,1032.70
2019-05-13T01:11:30.980Z,1032.74
2019-05-13T01:12:30.957Z,1032.71
2019-05-13T01:13:30.934Z,1032.71
2019-05-13T01:14:30.912Z,1032.72
2019-05-13T01:15:30.892Z,1032.73
2019-05-13T01:16:30.865Z,1032.71
2019-05-13T01:17:30.842Z,1032.73
2019-05-13T01:18:30.819Z,1032.72
2019-05-13T01:19:30.800Z,1032.75
2019-05-13T01:20:30.772Z,1032.83
2019-05-13T01:21:30.749Z,1032.75
2019-05-13T01:22:30.727Z,1032.77
2019-05-13T01:23:30.708Z,1032.76
2019-05-13T01:24:30.682Z,1032.73
2019-05-13T01:25:30.656Z,1032.70
2019-05-13T01:26:30.645Z,1032.69
2019-05-13T01:27:30.616Z,1032.68
2019-05-13T01:28:30.591Z,1032.69
2019-05-13T01:29:30.567Z,1032.66
2019-05-13T01:30:30.544Z,1032.68
2019-05-13T01:31:30.518Z,1032.71
2019-05-13T01:32:30.496Z,1032.76
2019-05-13T01:33:30.472Z,1032.74
2019-05-13T01:34:30.450Z,1032.76
2019-05-13T01:35:30.425Z,1032.76
2019-05-13T01:36:30.405Z,1032.79
2019-05-13T01:37:39.912Z,1032.74
2019-05-13T01:38:30.359Z,1032.72
2019-05-13T01:39:30.336Z,1032.73
2019-05-13T01:40:30.313Z,1032.73
2019-05-13T01:41:30.288Z,1032.73
2019-05-13T01:42:30.266Z,1032.74
2019-05-13T01:43:30.242Z,1032.73
2019-05-13T01:44:30.220Z,1032.75
2019-05-13T01:45:30.195Z,1032.75
2019-05-13T01:46:30.172Z,1032.75
2019-05-13T01:47:30.149Z,1032.76
2019-05-13T01:48:30.134Z,1032.76
2019-05-13T01:49:30.109Z,1032.75
2019-05-13T01:50:30.079Z,1032.76
2019-05-13T01:51:30.054Z,1032.77
2019-05-13T01:52:30.032Z,1032.80
2019-05-13T01:53:30.010Z,1032.84
2019-05-13T01:54:29.986Z,1032.81
2019-05-13T01:55:29.963Z,1032.79
2019-05-13T01:56:29.936Z,1032.77
2019-05-13T01:57:29.913Z,1032.76
2019-05-13T01:58:29.893Z,1032.76
2019-05-13T01:59:29.865Z,1032.77
2019-05-13T02:00:29.844Z,1032.77
2019-05-13T02:01:29.837Z,1032.73
2019-05-13T02:02:29.802Z,1032.71
2019-05-13T02:03:29.774Z,1032.69
2019-05-13T02:04:29.750Z,1032.65
2019-05-13T02:05:29.728Z,1032.65
2019-05-13T02:06:29.703Z,1032.67
2019-05-13T02:07:29.680Z,1032.69
2019-05-13T02:08:29.657Z,1032.70
2019-05-13T02:09:29.633Z,1032.71
2019-05-13T02:10:29.611Z,1032.72
2019-05-13T02:11:29.586Z,1032.73
2019-05-13T02:12:29.562Z,1032.69
2019-05-13T02:13:29.538Z,1032.75
2019-05-13T02:14:29.516Z,1032.76
2019-05-13T02:15:29.491Z,1032.79
2019-05-13T02:16:29.468Z,1032.82
2019-05-13T02:17:29.448Z,1032.84
2019-05-13T02:18:29.429Z,1032.82
2019-05-13T02:19:29.402Z,1032.84
2019-05-13T02:20:29.375Z,1032.86
2019-05-13T02:21:29.359Z,1032.84
2019-05-13T02:22:29.332Z,1032.87
2019-05-13T02:23:29.308Z,1032.85
2019-05-13T02:24:29.279Z,1032.85
2019-05-13T02:25:29.257Z,1032.89
2019-05-13T02:26:29.238Z,1032.86
2019-05-13T02:27:29.208Z,1032.84
2019-05-13T02:28:29.191Z,1032.86
2019-05-13T02:29:29.161Z,1032.83
2019-05-13T02:30:29.140Z,1032.80
2019-05-13T02:31:41.452Z,1032.80
2019-05-13T02:32:32.628Z,1032.82
2019-05-13T02:33:29.095Z,1032.86
2019-05-13T02:34:31.912Z,1032.87
2019-05-13T02:35:32.250Z,1032.89
2019-05-13T02:36:29.023Z,1032.87
2019-05-13T02:37:29.675Z,1032.90
2019-05-13T02:38:31.760Z,1032.88
2019-05-13T02:39:28.928Z,1032.84
2019-05-13T02:40:28.904Z,1032.86
2019-05-13T02:41:28.880Z,1032.85
2019-05-13T02:42:28.863Z,1032.84
2019-05-13T02:43:28.840Z,1032.85
2019-05-13T02:44:28.809Z,1032.90
2019-05-13T02:45:28.786Z,1032.90
2019-05-13T02:46:28.763Z,1032.88
2019-05-13T02:47:28.737Z,1032.96
2019-05-13T02:48:28.714Z,1032.91
2019-05-13T02:49:32.134Z,1032.88
2019-05-13T02:50:28.669Z,1032.90
2019-05-13T02:51:28.645Z,1032.92
2019-05-13T02:52:28.619Z,1032.90
2019-05-13T02:53:28.595Z,1032.92
2019-05-13T02:54:28.575Z,1032.92
2019-05-13T02:55:28.558Z,1032.88
2019-05-13T02:56:28.524Z,1032.83
2019-05-13T02:57:28.498Z,1032.83
2019-05-13T02:58:28.477Z,1032.89
2019-05-13T02:59:28.461Z,1032.94
2019-05-13T03:00:28.434Z,1032.92
2019-05-13T03:01:28.410Z,1032.97
2019-05-13T03:02:28.385Z,1032.94
2019-05-13T03:03:28.360Z,1032.97
2019-05-13T03:04:28.334Z,1032.95
2019-05-13T03:05:28.318Z,1032.98
2019-05-13T03:06:28.285Z,1032.99
2019-05-13T03:07:28.262Z,1032.96
2019-05-13T03:08:46.374Z,1032.97
2019-05-13T03:09:28.227Z,1032.97
2019-05-13T03:10:28.190Z,1032.97
2019-05-13T03:11:28.172Z,1032.95
2019-05-13T03:12:28.143Z,1032.95
2019-05-13T03:13:28.123Z,1032.95
2019-05-13T03:14:28.099Z,1033.02
2019-05-13T03:15:28.079Z,1033.05
2019-05-13T03:16:28.053Z,1033.01
2019-05-13T03:17:28.038Z,1033.05
2019-05-13T03:18:28.002Z,1033.02
2019-05-13T03:19:27.980Z,1033.07
2019-05-13T03:20:27.970Z,1033.11
2019-05-13T03:21:27.961Z,1033.14
2019-05-13T03:22:27.908Z,1033.16
2019-05-13T03:23:27.886Z,1033.14
2019-05-13T03:24:27.872Z,1033.17
2019-05-13T03:25:27.835Z,1033.21
2019-05-13T03:26:27.813Z,1033.21
2019-05-13T03:27:27.791Z,1033.17
2019-05-13T03:28:27.805Z,1033.17
2019-05-13T03:29:27.747Z,1033.17
2019-05-13T03:30:27.718Z,1033.16
2019-05-13T03:31:27.722Z,1033.19
2019-05-13T03:32:35.910Z,1033.22
2019-05-13T03:33:28.742Z,1033.24
2019-05-13T03:34:27.890Z,1033.23
2019-05-13T03:35:28.064Z,1033.22
2019-05-13T03:36:27.574Z,1033.27
2019-05-13T03:37:27.651Z,1033.26
2019-05-13T03:38:27.532Z,1033.30
2019-05-13T03:39:27.504Z,1033.32
2019-05-13T03:40:27.478Z,1033.31
2019-05-13T03:41:27.453Z,1033.27
2019-05-13T03:42:27.440Z,1033.31
2019-05-13T03:43:27.412Z,1033.31
2019-05-13T03:44:27.389Z,1033.31
2019-05-13T03:45:27.358Z,1033.31
2019-05-13T03:46:27.334Z,1033.35
2019-05-13T03:47:27.317Z,1033.31
2019-05-13T03:48:27.288Z,1033.29
2019-05-13T03:49:27.267Z,1033.33
2019-05-13T03:50:30.519Z,1033.28
2019-05-13T03:51:27.216Z,1033.29
2019-05-13T03:52:27.190Z,1033.30
2019-05-13T03:53:27.174Z,1033.28
2019-05-13T03:54:27.144Z,1033.30
2019-05-13T03:55:27.118Z,1033.30
2019-05-13T03:56:27.097Z,1033.32
2019-05-13T03:57:27.073Z,1033.28
2019-05-13T03:58:27.045Z,1033.31
2019-05-13T03:59:27.022Z,1033.34
2019-05-13T04:00:26.999Z,1033.33
2019-05-13T04:01:26.973Z,1033.37
2019-05-13T04:02:26.950Z,1033.37
2019-05-13T04:03:26.925Z,1033.38
2019-05-13T04:04:26.905Z,1033.38
2019-05-13T04:05:26.879Z,1033.39
2019-05-13T04:06:26.853Z,1033.40
2019-05-13T04:07:26.829Z,1033.40
2019-05-13T04:08:26.807Z,1033.37
2019-05-13T04:09:31.460Z,1033.38
2019-05-13T04:10:26.761Z,1033.35
2019-05-13T04:11:26.743Z,1033.35
2019-05-13T04:12:28.555Z,1033.29
2019-05-13T04:13:26.687Z,1033.30
2019-05-13T04:14:26.661Z,1033.34
2019-05-13T04:15:26.638Z,1033.34
2019-05-13T04:16:26.615Z,1033.36
2019-05-13T04:17:26.590Z,1033.38
2019-05-13T04:18:26.563Z,1033.40
2019-05-13T04:19:26.541Z,1033.42
2019-05-13T04:20:26.523Z,1033.40
2019-05-13T04:21:26.501Z,1033.42
2019-05-13T04:22:26.469Z,1033.39
2019-05-13T04:23:26.446Z,1033.42
2019-05-13T04:24:26.422Z,1033.40
2019-05-13T04:25:26.398Z,1033.45
2019-05-13T04:26:26.373Z,1033.46
2019-05-13T04:27:26.363Z,1033.45
2019-05-13T04:28:26.325Z,1033.48
2019-05-13T04:29:26.301Z,1033.49
2019-05-13T04:30:26.277Z,1033.45
2019-05-13T04:31:26.253Z,1033.48
2019-05-13T04:32:28.981Z,1033.44
2019-05-13T04:33:26.206Z,1033.45
2019-05-13T04:34:26.180Z,1033.50
2019-05-13T04:35:26.158Z,1033.46
2019-05-13T04:36:26.134Z,1033.47
2019-05-13T04:37:26.122Z,1033.49
2019-05-13T04:38:26.089Z,1033.52
2019-05-13T04:39:44.514Z,1033.53
2019-05-13T04:40:26.043Z,1033.52
2019-05-13T04:41:26.013Z,1033.53
2019-05-13T04:42:25.990Z,1033.49
2019-05-13T04:43:30.085Z,1033.50
2019-05-13T04:44:25.952Z,1033.50
2019-05-13T04:45:25.920Z,1033.55
2019-05-13T04:46:25.893Z,1033.56
2019-05-13T04:47:25.876Z,1033.55
2019-05-13T04:48:25.849Z,1033.57
2019-05-13T04:49:25.822Z,1033.56
2019-05-13T04:50:25.804Z,1033.57
2019-05-13T04:51:25.775Z,1033.61
2019-05-13T04:52:25.750Z,1033.64
2019-05-13T04:53:25.724Z,1033.67
2019-05-13T04:54:25.708Z,1033.67
2019-05-13T04:55:25.678Z,1033.69
2019-05-13T04:56:25.655Z,1033.69
2019-05-13T04:57:25.638Z,1033.71
2019-05-13T04:58:25.613Z,1033.72
2019-05-13T04:59:25.583Z,1033.73
2019-05-13T05:00:25.565Z,1033.73
2019-05-13T05:01:25.541Z,1033.71
2019-05-13T05:02:36.809Z,1033.72
2019-05-13T05:03:33.091Z,1033.70
2019-05-13T05:04:30.399Z,1033.71
2019-05-13T05:05:25.441Z,1033.72
2019-05-13T05:06:25.421Z,1033.74
2019-05-13T05:07:25.401Z,1033.72
2019-05-13T05:08:25.372Z,1033.74
2019-05-13T05:09:25.345Z,1033.72
2019-05-13T05:10:33.870Z,1033.72
2019-05-13T05:11:25.302Z,1033.72
2019-05-13T05:12:25.275Z,1033.71
2019-05-13T05:13:25.264Z,1033.74
2019-05-13T05:14:25.229Z,1033.79
2019-05-13T05:15:25.207Z,1033.78
2019-05-13T05:16:25.183Z,1033.84
2019-05-13T05:17:25.159Z,1033.85
2019-05-13T05:18:25.132Z,1033.83
2019-05-13T05:19:25.125Z,1033.84
2019-05-13T05:20:25.085Z,1033.86
2019-05-13T05:21:25.068Z,1033.84
2019-05-13T05:22:25.036Z,1033.82
2019-05-13T05:23:25.029Z,1033.82
2019-05-13T05:24:24.996Z,1033.84
2019-05-13T05:25:24.971Z,1033.85
2019-05-13T05:26:24.946Z,1033.85
2019-05-13T05:27:24.924Z,1033.87
2019-05-13T05:28:24.900Z,1033.87
2019-05-13T05:29:24.874Z,1033.87
2019-05-13T05:30:24.859Z,1033.90
2019-05-13T05:31:24.832Z,1033.85
2019-05-13T05:32:24.807Z,1033.87
2019-05-13T05:33:24.786Z,1033.89
2019-05-13T05:34:24.757Z,1033.93
2019-05-13T05:35:24.731Z,1033.93
2019-05-13T05:36:24.709Z,1033.94
2019-05-13T05:37:24.685Z,1033.93
2019-05-13T05:38:26.162Z,1033.95
2019-05-13T05:39:24.638Z,1033.98
2019-05-13T05:40:31.364Z,1033.94
2019-05-13T05:41:24.598Z,1033.96
2019-05-13T05:42:24.570Z,1033.97
2019-05-13T05:43:24.545Z,1033.99
2019-05-13T05:44:24.531Z,1033.97
2019-05-13T05:45:24.501Z,1033.98
2019-05-13T05:46:24.482Z,1033.97
2019-05-13T05:47:24.454Z,1033.97
2019-05-13T05:48:24.432Z,1033.98
2019-05-13T05:49:24.406Z,1034.01
2019-05-13T05:50:24.387Z,1033.98
2019-05-13T05:51:24.361Z,1034.00
2019-05-13T05:52:24.341Z,1033.96
2019-05-13T05:53:24.314Z,1033.99
2019-05-13T05:54:24.305Z,1033.99
2019-05-13T05:55:24.268Z,1034.00
2019-05-13T05:56:24.245Z,1034.06
2019-05-13T05:57:24.219Z,1034.03
2019-05-13T05:58:24.213Z,1034.03
2019-05-13T05:59:24.175Z,1034.00
2019-05-13T06:00:24.159Z,1034.05
2019-05-13T06:01:24.128Z,1034.01
2019-05-13T06:02:24.107Z,1034.01
2019-05-13T06:03:24.080Z,1034.00
2019-05-13T06:04:24.062Z,1034.04
2019-05-13T06:05:24.040Z,1034.04
2019-05-13T06:06:24.014Z,1034.06
2019-05-13T06:07:23.989Z,1034.03
2019-05-13T06:08:23.967Z,1034.06
2019-05-13T06:09:23.942Z,1034.06
2019-05-13T06:10:23.920Z,1034.04
2019-05-13T06:11:23.901Z,1034.03
2019-05-13T06:12:23.875Z,1033.97
2019-05-13T06:13:23.848Z,1034.02
2019-05-13T06:14:23.827Z,1033.96
2019-05-13T06:15:23.804Z,1034.01
2019-05-13T06:16:23.781Z,1034.02
2019-05-13T06:17:23.757Z,1033.97
2019-05-13T06:18:23.739Z,1034.00
2019-05-13T06:19:23.711Z,1034.00
2019-05-13T06:20:23.702Z,1034.02
2019-05-13T06:21:23.668Z,1033.98
2019-05-13T06:22:23.645Z,1034.02
2019-05-13T06:23:23.618Z,1034.04
2019-05-13T06:24:26.801Z,1034.04
2019-05-13T06:25:23.781Z,1033.97
2019-05-13T06:26:23.909Z,1033.98
2019-05-13T06:27:23.528Z,1033.93
2019-05-13T06:28:23.504Z,1033.93
2019-05-13T06:29:23.478Z,1033.97
2019-05-13T06:30:23.465Z,1033.95
2019-05-13T06:31:23.435Z,1033.95
2019-05-13T06:32:26.425Z,1033.98
2019-05-13T06:33:24.138Z,1033.96
2019-05-13T06:34:23.364Z,1033.96
2019-05-13T06:35:23.342Z,1033.95
2019-05-13T06:36:23.319Z,1033.95
2019-05-13T06:37:23.304Z,1033.93
2019-05-13T06:38:23.274Z,1033.87
2019-05-13T06:39:23.260Z,1033.93
2019-05-13T06:40:23.235Z,1033.90
2019-05-13T06:41:23.212Z,1033.87
2019-05-13T06:42:23.182Z,1033.91
2019-05-13T06:43:23.174Z,1033.93
2019-05-13T06:44:23.139Z,1033.94
2019-05-13T06:45:23.123Z,1033.95
2019-05-13T06:46:23.092Z,1033.95
2019-05-13T06:47:23.072Z,1033.94
2019-05-13T06:48:23.247Z,1033.91
2019-05-13T06:49:23.027Z,1033.95
2019-05-13T06:50:23.015Z,1033.97
2019-05-13T06:51:22.982Z,1033.95
2019-05-13T06:52:22.959Z,1033.89
2019-05-13T06:53:22.937Z,1033.94
2019-05-13T06:54:22.914Z,1033.92
2019-05-13T06:55:22.890Z,1033.96
2019-05-13T06:56:22.867Z,1033.87
2019-05-13T06:57:22.844Z,1033.88
2019-05-13T06:58:22.828Z,1033.91
2019-05-13T06:59:22.798Z,1033.91
2019-05-13T07:00:22.891Z,1033.89
2019-05-13T07:01:22.751Z,1033.92
2019-05-13T07:02:22.728Z,1033.92
2019-05-13T07:03:22.704Z,1033.89
2019-05-13T07:04:22.684Z,1033.88
2019-05-13T07:05:22.886Z,1033.93
2019-05-13T07:06:22.644Z,1033.92
2019-05-13T07:07:22.613Z,1033.89
2019-05-13T07:08:22.592Z,1033.94
2019-05-13T07:09:22.570Z,1033.89
2019-05-13T07:10:22.548Z,1033.90
2019-05-13T07:11:24.985Z,1033.91
2019-05-13T07:12:22.501Z,1033.94
2019-05-13T07:13:22.484Z,1033.93
2019-05-13T07:14:22.456Z,1033.93
2019-05-13T07:15:22.596Z,1033.98
2019-05-13T07:16:22.513Z,1033.98
2019-05-13T07:17:22.647Z,1033.97
2019-05-13T07:18:22.375Z,1033.96
2019-05-13T07:19:23.928Z,1033.94
2019-05-13T07:20:22.878Z,1033.95
2019-05-13T07:21:22.309Z,1033.89
2019-05-13T07:22:23.133Z,1033.89
2019-05-13T07:23:22.535Z,1033.95
2019-05-13T07:24:22.236Z,1033.99
2019-05-13T07:25:22.377Z,1033.99
2019-05-13T07:26:22.271Z,1034.04
2019-05-13T07:27:22.902Z,1034.02
2019-05-13T07:28:22.148Z,1034.03
2019-05-13T07:29:24.190Z,1034.03
2019-05-13T07:30:22.096Z,1034.01
2019-05-13T07:31:22.075Z,1034.04
2019-05-13T07:32:22.291Z,1034.04
2019-05-13T07:33:22.031Z,1034.01
2019-05-13T07:34:24.512Z,1034.01
2019-05-13T07:35:22.872Z,1034.03
2019-05-13T07:36:22.659Z,1033.99
2019-05-13T07:37:22.115Z,1034.00
2019-05-13T07:38:22.376Z,1034.00
2019-05-13T07:39:22.395Z,1034.04
2019-05-13T07:40:22.281Z,1034.07
2019-05-13T07:41:35.652Z,1034.07
2019-05-13T07:42:22.325Z,1034.05
2019-05-13T07:43:21.809Z,1034.05
2019-05-13T07:44:22.446Z,1034.06
2019-05-13T07:45:21.774Z,1034.08
2019-05-13T07:46:21.927Z,1034.08
2019-05-13T07:47:22.441Z,1034.06
2019-05-13T07:48:27.299Z,1034.11
2019-05-13T07:49:22.463Z,1034.11
2019-05-13T07:50:21.985Z,1034.06
2019-05-13T07:51:22.288Z,1034.04
2019-05-13T07:52:22.794Z,1034.04
2019-05-13T07:53:22.288Z,1034.04
2019-05-13T07:54:22.140Z,1034.03
2019-05-13T07:55:22.289Z,1034.03
2019-05-13T07:56:22.007Z,1034.02
2019-05-13T07:57:21.645Z,1034.05
2019-05-13T07:58:22.953Z,1034.06
2019-05-13T07:59:21.460Z,1034.05
2019-05-13T08:00:21.812Z,1034.06
2019-05-13T08:01:22.065Z,1034.09
2019-05-13T08:02:21.840Z,1034.09
2019-05-13T08:03:21.566Z,1034.09
2019-05-13T08:04:23.678Z,1034.08
2019-05-13T08:05:22.424Z,1034.08
2019-05-13T08:06:22.177Z,1034.09
2019-05-13T08:07:22.650Z,1034.06
2019-05-13T08:08:22.053Z,1034.05
2019-05-13T08:09:21.652Z,1034.09
2019-05-13T08:10:21.956Z,1034.05
2019-05-13T08:11:22.370Z,1034.10
2019-05-13T08:12:21.670Z,1034.06
2019-05-13T08:13:22.558Z,1034.11
2019-05-13T08:14:21.775Z,1034.11
2019-05-13T08:15:22.348Z,1034.09
2019-05-13T08:16:22.347Z,1034.12
2019-05-13T08:17:22.480Z,1034.05
2019-05-13T08:18:22.226Z,1034.13
2019-05-13T08:19:21.796Z,1034.12
2019-05-13T08:20:22.131Z,1034.13
2019-05-13T08:21:21.593Z,1034.04
2019-05-13T08:22:22.071Z,1034.11
2019-05-13T08:23:21.663Z,1034.04
2019-05-13T08:24:22.629Z,1034.08
2019-05-13T08:25:22.269Z,1034.08
2019-05-13T08:26:21.694Z,1034.10
2019-05-13T08:27:29.804Z,1034.09
2019-05-13T08:28:22.602Z,1034.09
2019-05-13T08:29:21.676Z,1034.05
2019-05-13T08:30:22.742Z,1034.07
2019-05-13T08:31:21.582Z,1034.10
2019-05-13T08:32:22.164Z,1034.10
2019-05-13T08:33:22.614Z,1034.11
2019-05-13T08:34:22.618Z,1034.07
2019-05-13T08:35:22.609Z,1034.05
2019-05-13T08:36:23.277Z,1034.08
2019-05-13T08:37:21.675Z,1034.02
2019-05-13T08:38:22.990Z,1034.02
2019-05-13T08:39:21.633Z,1033.98
2019-05-13T08:40:23.268Z,1033.98
2019-05-13T08:41:23.386Z,1033.99
2019-05-13T08:42:23.344Z,1033.99
2019-05-13T08:43:22.568Z,1034.01
2019-05-13T08:44:21.622Z,1034.07
2019-05-13T08:45:22.386Z,1034.01
2019-05-13T08:46:21.856Z,1033.99
2019-05-13T08:47:22.464Z,1034.02
2019-05-13T08:48:22.158Z,1033.93
2019-05-13T08:49:21.982Z,1033.94
2019-05-13T08:50:22.010Z,1033.90
2019-05-13T08:51:22.069Z,1033.95
2019-05-13T08:52:21.904Z,1033.98
2019-05-13T08:53:21.209Z,1034.00
2019-05-13T08:54:21.932Z,1033.97
2019-05-13T08:55:21.484Z,1033.99
2019-05-13T08:56:21.793Z,1034.00
2019-05-13T08:57:22.119Z,1034.01
2019-05-13T08:58:21.700Z,1034.00
2019-05-13T08:59:22.194Z,1033.98
2019-05-13T09:00:21.540Z,1033.99
2019-05-13T09:01:22.531Z,1034.02
2019-05-13T09:02:22.196Z,1034.00
2019-05-13T09:03:21.511Z,1034.00
2019-05-13T09:04:22.242Z,1034.01
2019-05-13T09:05:21.531Z,1033.97
2019-05-13T09:06:22.082Z,1033.96
2019-05-13T09:07:23.641Z,1033.94
2019-05-13T09:08:22.196Z,1033.96
2019-05-13T09:09:22.037Z,1034.04
2019-05-13T09:10:21.429Z,1033.98
2019-05-13T09:11:22.065Z,1034.00
2019-05-13T09:12:29.648Z,1033.98
2019-05-13T09:13:22.200Z,1033.97
2019-05-13T09:14:21.913Z,1034.01
2019-05-13T09:15:22.313Z,1034.06
2019-05-13T09:16:21.477Z,1034.02
2019-05-13T09:17:21.307Z,1034.01
2019-05-13T09:18:22.459Z,1033.98
2019-05-13T09:19:21.553Z,1033.98
2019-05-13T09:20:21.983Z,1034.01
2019-05-13T09:21:22.295Z,1034.02
2019-05-13T09:22:21.341Z,1034.02
2019-05-13T09:23:22.046Z,1033.99
2019-05-13T09:24:26.040Z,1034.00
2019-05-13T09:25:21.518Z,1034.01
2019-05-13T09:26:22.354Z,1033.98
2019-05-13T09:27:19.635Z,1034.02
2019-05-13T09:28:21.797Z,1034.03
2019-05-13T09:29:19.576Z,1034.03
2019-05-13T09:30:22.131Z,1034.03
2019-05-13T09:31:22.080Z,1034.06
2019-05-13T09:32:21.494Z,1034.00
2019-05-13T09:33:21.771Z,1033.99
2019-05-13T09:34:21.935Z,1034.01
2019-05-13T09:35:19.464Z,1033.98
2019-05-13T09:36:21.615Z,1034.02
2019-05-13T09:37:19.414Z,1033.95
2019-05-13T09:38:21.887Z,1033.93
2019-05-13T09:39:21.548Z,1033.93
2019-05-13T09:40:22.207Z,1033.94
2019-05-13T09:41:21.435Z,1033.94
2019-05-13T09:42:21.493Z,1033.93
2019-05-13T09:43:19.296Z,1033.96
2019-05-13T09:44:21.618Z,1033.94
2019-05-13T09:45:21.446Z,1033.92
2019-05-13T09:46:19.244Z,1033.92
2019-05-13T09:47:21.521Z,1033.94
2019-05-13T09:48:19.193Z,1033.97
2019-05-13T09:49:20.878Z,1033.94
2019-05-13T09:50:31.506Z,1033.95
2019-05-13T09:51:21.557Z,1033.92
2019-05-13T09:52:19.113Z,1033.93
2019-05-13T09:53:19.090Z,1033.96
2019-05-13T09:54:19.070Z,1033.93
2019-05-13T09:55:26.431Z,1033.95
2019-05-13T09:56:19.031Z,1033.94
2019-05-13T09:57:21.894Z,1033.93
2019-05-13T09:58:18.996Z,1033.92
2019-05-13T09:59:18.971Z,1033.92
2019-05-13T10:00:21.630Z,1033.96
2019-05-13T10:01:18.929Z,1033.92
2019-05-13T10:02:21.317Z,1033.87
2019-05-13T10:03:18.893Z,1033.85
2019-05-13T10:04:18.875Z,1033.87
2019-05-13T10:05:18.851Z,1033.94
2019-05-13T10:06:18.833Z,1033.95
2019-05-13T10:07:18.815Z,1033.91
2019-05-13T10:08:21.143Z,1033.89
2019-05-13T10:09:18.780Z,1033.84
2019-05-13T10:10:18.755Z,1033.91
2019-05-13T10:11:18.735Z,1033.96
2019-05-13T10:12:18.722Z,1033.87
2019-05-13T10:13:18.729Z,1033.90
2019-05-13T10:14:18.674Z,1033.89
2019-05-13T10:15:18.655Z,1033.93
2019-05-13T10:16:18.634Z,1033.95
2019-05-13T10:17:18.627Z,1033.92
2019-05-13T10:18:18.596Z,1033.92
2019-05-13T10:19:18.574Z,1033.85
2019-05-13T10:20:18.553Z,1033.86
2019-05-13T10:21:18.539Z,1033.88
2019-05-13T10:22:18.515Z,1033.91
2019-05-13T10:23:18.496Z,1033.89
2019-05-13T10:24:18.481Z,1033.91
2019-05-13T10:25:18.604Z,1033.86
2019-05-13T10:26:18.435Z,1033.84
2019-05-13T10:27:19.238Z,1033.85
2019-05-13T10:28:18.400Z,1033.83
2019-05-13T10:29:18.377Z,1033.81
2019-05-13T10:30:18.364Z,1033.85
2019-05-13T10:31:18.336Z,1033.84
2019-05-13T10:32:18.325Z,1033.75
2019-05-13T10:33:18.298Z,1033.81
2019-05-13T10:34:18.282Z,1033.73
2019-05-13T10:35:18.422Z,1033.73
2019-05-13T10:36:18.245Z,1033.73
2019-05-13T10:37:18.220Z,1033.76
2019-05-13T10:38:18.199Z,1033.71
2019-05-13T10:39:18.190Z,1033.73
2019-05-13T10:40:18.173Z,1033.74
2019-05-13T10:41:18.144Z,1033.74
2019-05-13T10:42:18.125Z,1033.73
2019-05-13T10:43:31.177Z,1033.71
2019-05-13T10:44:18.084Z,1033.77
2019-05-13T10:45:18.097Z,1033.75
2019-05-13T10:46:18.051Z,1033.70
2019-05-13T10:47:18.035Z,1033.68
2019-05-13T10:48:18.007Z,1033.70
2019-05-13T10:49:17.994Z,1033.63
2019-05-13T10:50:17.967Z,1033.63
2019-05-13T10:51:17.944Z,1033.63
2019-05-13T10:52:17.929Z,1033.61
2019-05-13T10:53:17.913Z,1033.57
2019-05-13T10:54:17.887Z,1033.56
2019-05-13T10:55:17.865Z,1033.63
2019-05-13T10:56:17.851Z,1033.59
2019-05-13T10:57:17.825Z,1033.56
2019-05-13T10:58:17.811Z,1033.62
2019-05-13T10:59:17.786Z,1033.60
2019-05-13T11:00:17.767Z,1033.57
2019-05-13T11:01:17.769Z,1033.56
2019-05-13T11:02:17.729Z,1033.51
2019-05-13T11:03:17.710Z,1033.52
2019-05-13T11:04:17.691Z,1033.49
2019-05-13T11:05:17.672Z,1033.48
2019-05-13T11:06:17.657Z,1033.45
2019-05-13T11:07:17.650Z,1033.43
2019-05-13T11:08:17.613Z,1033.38
2019-05-13T11:09:17.595Z,1033.38
2019-05-13T11:10:17.575Z,1033.35
2019-05-13T11:11:17.568Z,1033.32
2019-05-13T11:12:17.534Z,1033.36
2019-05-13T11:13:17.513Z,1033.33
2019-05-13T11:14:17.494Z,1033.33
2019-05-13T11:15:17.478Z,1033.38
2019-05-13T11:16:17.455Z,1033.35
2019-05-13T11:17:25.698Z,1033.28
2019-05-13T11:18:19.357Z,1033.31
2019-05-13T11:19:17.400Z,1033.41
2019-05-13T11:20:17.378Z,1033.43
2019-05-13T11:21:17.362Z,1033.28
2019-05-13T11:22:17.349Z,1033.38
2019-05-13T11:23:17.331Z,1033.37
2019-05-13T11:24:17.311Z,1033.38
2019-05-13T11:25:17.285Z,1033.34
2019-05-13T11:26:17.269Z,1033.39
2019-05-13T11:27:17.247Z,1033.37
2019-05-13T11:28:17.224Z,1033.36
2019-05-13T11:29:17.206Z,1033.34
2019-05-13T11:30:17.186Z,1033.31
2019-05-13T11:31:17.165Z,1033.36
2019-05-13T11:32:17.149Z,1033.32
2019-05-13T11:33:17.129Z,1033.30
2019-05-13T11:34:17.109Z,1033.29
2019-05-13T11:35:17.091Z,1033.30
2019-05-13T11:36:19.058Z,1033.28
2019-05-13T11:37:17.052Z,1033.34
2019-05-13T11:38:17.032Z,1033.34
2019-05-13T11:39:17.014Z,1033.30
2019-05-13T11:40:17.011Z,1033.31
2019-05-13T11:41:16.975Z,1033.29
2019-05-13T11:42:16.969Z,1033.31
2019-05-13T11:43:16.936Z,1033.29
2019-05-13T11:44:17.278Z,1033.33
2019-05-13T11:45:16.897Z,1033.27
2019-05-13T11:46:16.879Z,1033.23
2019-05-13T11:47:16.861Z,1033.25
2019-05-13T11:48:16.848Z,1033.25
2019-05-13T11:49:16.830Z,1033.17
2019-05-13T11:50:16.802Z,1033.16
2019-05-13T11:51:16.782Z,1033.15
2019-05-13T11:52:16.765Z,1033.11
2019-05-13T11:53:31.563Z,1033.10
2019-05-13T11:54:16.724Z,1033.12
2019-05-13T11:55:16.725Z,1033.09
2019-05-13T11:56:16.687Z,1033.07
2019-05-13T11:57:16.685Z,1033.14
2019-05-13T11:58:16.651Z,1033.02
2019-05-13T11:59:16.637Z,1033.05
2019-05-13T12:00:16.609Z,1033.07
2019-05-13T12:01:16.590Z,1032.98
2019-05-13T12:02:16.610Z,1032.96
2019-05-13T12:03:16.560Z,1032.93
2019-05-13T12:04:16.545Z,1033.01
2019-05-13T12:05:16.519Z,1032.98